OCN7YP LEPA-EDDM
Flight info
| Callsign | OCN7YP |
|---|---|
| Flight time | 1h 34m |
| Altitude | 36000 |
| Route | MEROS DCT LAPIT DCT CHELY DCT LUMAS/N0420F340 DCT UNANA/N0403F300 DCT STP DCT RAPED DCT PIGOS DCT EKSID DCT NOSTA DCT NOPMU DCT VAKON/N0428F360 DCT TAGIP DCT GUNGO DCT TISAX DCT IVKAL T102 NINUR T101 BETOS |
| Aircraft | A320/M-SDE3FGHIRWY/LB1 |
Departure
| Time | 2026-05-06 16:38 |
|---|---|
| Airport | Palma de Mallorca Airport (LEPA) |
Arrival
| Time | 2026-05-06 18:13 |
|---|---|
| Airport | Munich Airport (EDDM) |
| Time | Latitude | Longitude | Altitude | Speed | Heading |
|---|---|---|---|---|---|
| 2026-05-06 15:55 | 39.55087 | 2.73618 | 39 ft | 0 kts | 189° |
| 2026-05-06 16:29 | 39.55111 | 2.73621 | 37 ft | 4 kts | 173° |
| 2026-05-06 16:29 | 39.55132 | 2.73612 | 37 ft | 4 kts | 115° |
| 2026-05-06 16:30 | 39.55133 | 2.73598 | 36 ft | 1 kts | 59° |
| 2026-05-06 16:30 | 39.55132 | 2.73595 | 37 ft | 0 kts | 59° |
| 2026-05-06 16:32 | 39.55134 | 2.73600 | 38 ft | 4 kts | 59° |
| 2026-05-06 16:32 | 39.55170 | 2.73676 | 38 ft | 12 kts | 58° |
| 2026-05-06 16:32 | 39.55172 | 2.73746 | 38 ft | 7 kts | 125° |
| 2026-05-06 16:33 | 39.55172 | 2.73799 | 38 ft | 6 kts | 59° |
| 2026-05-06 16:33 | 39.55178 | 2.73845 | 38 ft | 8 kts | 118° |
| 2026-05-06 16:33 | 39.55104 | 2.73906 | 38 ft | 17 kts | 148° |
| 2026-05-06 16:34 | 39.54924 | 2.74048 | 38 ft | 13 kts | 148° |
| 2026-05-06 16:34 | 39.54849 | 2.74108 | 38 ft | 12 kts | 148° |
| 2026-05-06 16:34 | 39.54784 | 2.74114 | 38 ft | 11 kts | 227° |
| 2026-05-06 16:34 | 39.54726 | 2.73993 | 38 ft | 21 kts | 238° |
| 2026-05-06 16:35 | 39.54639 | 2.73810 | 37 ft | 25 kts | 239° |
| 2026-05-06 16:35 | 39.54546 | 2.73612 | 38 ft | 26 kts | 239° |
| 2026-05-06 16:35 | 39.54449 | 2.73407 | 38 ft | 27 kts | 239° |
| 2026-05-06 16:35 | 39.54356 | 2.73211 | 38 ft | 18 kts | 238° |
| 2026-05-06 16:36 | 39.54301 | 2.73168 | 38 ft | 8 kts | 163° |
| 2026-05-06 16:36 | 39.54269 | 2.73221 | 38 ft | 9 kts | 102° |
| 2026-05-06 16:36 | 39.54268 | 2.73339 | 38 ft | 14 kts | 90° |
| 2026-05-06 16:36 | 39.54259 | 2.73446 | 37 ft | 7 kts | 103° |
| 2026-05-06 16:37 | 39.54266 | 2.73465 | 38 ft | 0 kts | 59° |
| 2026-05-06 16:37 | 39.54269 | 2.73471 | 38 ft | 9 kts | 59° |
| 2026-05-06 16:37 | 39.54448 | 2.73850 | 38 ft | 86 kts | 58° |
| 2026-05-06 16:38 | 39.54869 | 2.74739 | 38 ft | 143 kts | 58° |
| 2026-05-06 16:38 | 39.55440 | 2.75956 | 402 ft | 160 kts | 57° |
| 2026-05-06 16:38 | 39.56002 | 2.77182 | 1192 ft | 156 kts | 59° |
| 2026-05-06 16:38 | 39.56557 | 2.78401 | 1822 ft | 162 kts | 60° |
| 2026-05-06 16:39 | 39.57166 | 2.79741 | 2158 ft | 184 kts | 60° |
| 2026-05-06 16:39 | 39.57862 | 2.81273 | 2469 ft | 206 kts | 60° |
| 2026-05-06 16:39 | 39.58615 | 2.82926 | 2922 ft | 217 kts | 59° |
| 2026-05-06 16:39 | 39.59392 | 2.84627 | 3521 ft | 221 kts | 59° |
| 2026-05-06 16:40 | 39.60182 | 2.86358 | 4112 ft | 225 kts | 59° |
| 2026-05-06 16:40 | 39.60987 | 2.88122 | 4823 ft | 229 kts | 58° |
| 2026-05-06 16:40 | 39.61803 | 2.89912 | 5534 ft | 233 kts | 59° |
| 2026-05-06 16:40 | 39.62635 | 2.91756 | 6126 ft | 245 kts | 59° |
| 2026-05-06 16:41 | 39.63518 | 2.93769 | 6476 ft | 269 kts | 60° |
| 2026-05-06 16:41 | 39.64461 | 2.95948 | 7047 ft | 282 kts | 60° |
| 2026-05-06 16:41 | 39.65428 | 2.98191 | 7824 ft | 287 kts | 60° |
| 2026-05-06 16:41 | 39.66412 | 3.00472 | 8640 ft | 292 kts | 60° |
| 2026-05-06 16:42 | 39.67415 | 3.02793 | 9470 ft | 297 kts | 59° |
| 2026-05-06 16:42 | 39.68434 | 3.05148 | 10228 ft | 304 kts | 60° |
| 2026-05-06 16:42 | 39.69509 | 3.07629 | 10511 ft | 327 kts | 60° |
| 2026-05-06 16:42 | 39.70661 | 3.10292 | 10722 ft | 350 kts | 60° |
| 2026-05-06 16:43 | 39.71880 | 3.13116 | 11115 ft | 365 kts | 60° |
| 2026-05-06 16:43 | 39.73130 | 3.16020 | 11718 ft | 371 kts | 60° |
| 2026-05-06 16:43 | 39.74399 | 3.18974 | 12367 ft | 377 kts | 60° |
| 2026-05-06 16:43 | 39.75684 | 3.21968 | 13011 ft | 383 kts | 60° |
| 2026-05-06 16:44 | 39.76999 | 3.25006 | 13637 ft | 389 kts | 58° |
| 2026-05-06 16:44 | 39.78618 | 3.27846 | 14176 ft | 393 kts | 44° |
| 2026-05-06 16:44 | 39.80751 | 3.30060 | 14739 ft | 394 kts | 27° |
| 2026-05-06 16:44 | 39.83164 | 3.31778 | 15324 ft | 397 kts | 25° |
| 2026-05-06 16:45 | 39.85613 | 3.33479 | 15907 ft | 401 kts | 25° |
| 2026-05-06 16:45 | 39.88094 | 3.35185 | 16479 ft | 405 kts | 25° |
| 2026-05-06 16:45 | 39.90601 | 3.36903 | 17031 ft | 409 kts | 25° |
| 2026-05-06 16:45 | 39.93135 | 3.38640 | 17595 ft | 413 kts | 25° |
| 2026-05-06 16:46 | 39.95693 | 3.40394 | 18144 ft | 418 kts | 25° |
| 2026-05-06 16:46 | 39.98272 | 3.42166 | 18632 ft | 422 kts | 24° |
| 2026-05-06 16:46 | 40.00882 | 3.43966 | 19068 ft | 426 kts | 24° |
| 2026-05-06 16:46 | 40.03508 | 3.45779 | 19532 ft | 429 kts | 24° |
| 2026-05-06 16:47 | 40.06162 | 3.47617 | 19989 ft | 433 kts | 24° |
| 2026-05-06 16:47 | 40.08834 | 3.49467 | 20436 ft | 437 kts | 24° |
| 2026-05-06 16:47 | 40.11532 | 3.51334 | 20876 ft | 441 kts | 24° |
| 2026-05-06 16:47 | 40.14252 | 3.53215 | 21322 ft | 444 kts | 24° |
| 2026-05-06 16:48 | 40.16992 | 3.55116 | 21755 ft | 448 kts | 24° |
| 2026-05-06 16:48 | 40.19753 | 3.57034 | 22183 ft | 451 kts | 24° |
| 2026-05-06 16:48 | 40.22535 | 3.58969 | 22629 ft | 455 kts | 24° |
| 2026-05-06 16:48 | 40.25336 | 3.60922 | 23055 ft | 458 kts | 24° |
| 2026-05-06 16:49 | 40.28155 | 3.62894 | 23466 ft | 461 kts | 24° |
| 2026-05-06 16:49 | 40.30996 | 3.64882 | 23796 ft | 464 kts | 24° |
| 2026-05-06 16:49 | 40.33850 | 3.66879 | 23924 ft | 466 kts | 24° |
| 2026-05-06 16:49 | 40.36709 | 3.68876 | 23950 ft | 466 kts | 24° |
| 2026-05-06 16:50 | 40.39581 | 3.70883 | 24282 ft | 469 kts | 24° |
| 2026-05-06 16:50 | 40.42466 | 3.72900 | 24655 ft | 472 kts | 24° |
| 2026-05-06 16:50 | 40.45375 | 3.74931 | 24961 ft | 475 kts | 24° |
| 2026-05-06 16:50 | 40.48303 | 3.76977 | 25286 ft | 478 kts | 24° |
| 2026-05-06 16:51 | 40.51243 | 3.79040 | 25606 ft | 481 kts | 24° |
| 2026-05-06 16:51 | 40.54198 | 3.81123 | 25925 ft | 483 kts | 24° |
| 2026-05-06 16:51 | 40.57169 | 3.83222 | 26238 ft | 486 kts | 24° |
| 2026-05-06 16:51 | 40.60159 | 3.85334 | 26547 ft | 489 kts | 24° |
| 2026-05-06 16:52 | 40.63162 | 3.87454 | 26858 ft | 492 kts | 24° |
| 2026-05-06 16:52 | 40.66184 | 3.89586 | 27174 ft | 494 kts | 24° |
| 2026-05-06 16:52 | 40.69220 | 3.91730 | 27472 ft | 497 kts | 24° |
| 2026-05-06 16:52 | 40.72273 | 3.93885 | 27760 ft | 499 kts | 24° |
| 2026-05-06 16:53 | 40.75339 | 3.96051 | 28036 ft | 501 kts | 24° |
| 2026-05-06 16:53 | 40.78422 | 3.98233 | 28315 ft | 504 kts | 24° |
| 2026-05-06 16:53 | 40.81515 | 4.00427 | 28594 ft | 506 kts | 24° |
| 2026-05-06 16:53 | 40.84623 | 4.02634 | 28882 ft | 508 kts | 24° |
| 2026-05-06 16:54 | 40.87748 | 4.04852 | 29113 ft | 511 kts | 24° |
| 2026-05-06 16:54 | 40.90887 | 4.07083 | 29426 ft | 512 kts | 24° |
| 2026-05-06 16:54 | 40.94024 | 4.09321 | 29814 ft | 512 kts | 24° |
| 2026-05-06 16:54 | 40.97158 | 4.11560 | 30165 ft | 512 kts | 24° |
| 2026-05-06 16:55 | 41.00288 | 4.13799 | 30493 ft | 511 kts | 24° |
| 2026-05-06 16:55 | 41.03417 | 4.16040 | 30820 ft | 511 kts | 24° |
| 2026-05-06 16:55 | 41.06542 | 4.18278 | 31185 ft | 510 kts | 24° |
| 2026-05-06 16:55 | 41.09663 | 4.20514 | 31470 ft | 510 kts | 24° |
| 2026-05-06 16:56 | 41.12785 | 4.22751 | 31788 ft | 510 kts | 24° |
| 2026-05-06 16:56 | 41.15902 | 4.24987 | 32122 ft | 509 kts | 24° |
| 2026-05-06 16:56 | 41.19014 | 4.27222 | 32453 ft | 508 kts | 24° |
| 2026-05-06 16:56 | 41.22119 | 4.29457 | 32784 ft | 508 kts | 24° |
| 2026-05-06 16:57 | 41.25225 | 4.31695 | 33115 ft | 507 kts | 24° |
| 2026-05-06 16:57 | 41.28327 | 4.33932 | 33463 ft | 507 kts | 24° |
| 2026-05-06 16:57 | 41.31422 | 4.36166 | 33801 ft | 506 kts | 24° |
| 2026-05-06 16:57 | 41.34513 | 4.38401 | 34103 ft | 506 kts | 24° |
| 2026-05-06 16:58 | 41.37603 | 4.40633 | 34387 ft | 505 kts | 24° |
| 2026-05-06 16:58 | 41.40689 | 4.42862 | 34669 ft | 504 kts | 24° |
| 2026-05-06 16:58 | 41.43769 | 4.45091 | 34939 ft | 504 kts | 24° |
| 2026-05-06 16:58 | 41.46845 | 4.47323 | 35208 ft | 503 kts | 24° |
| 2026-05-06 16:59 | 41.49913 | 4.49558 | 35494 ft | 503 kts | 24° |
| 2026-05-06 16:59 | 41.52979 | 4.51793 | 35735 ft | 502 kts | 25° |
| 2026-05-06 16:59 | 41.56044 | 4.54028 | 35911 ft | 502 kts | 25° |
| 2026-05-06 17:00 | 41.62197 | 4.58514 | 35941 ft | 504 kts | 25° |
| 2026-05-06 17:00 | 41.68367 | 4.63024 | 35986 ft | 506 kts | 25° |
| 2026-05-06 17:01 | 41.74305 | 4.68122 | 35955 ft | 511 kts | 38° |
| 2026-05-06 17:01 | 41.79441 | 4.74749 | 35953 ft | 513 kts | 43° |
| 2026-05-06 17:02 | 41.84530 | 4.81463 | 35953 ft | 513 kts | 43° |
| 2026-05-06 17:02 | 41.89624 | 4.88181 | 35974 ft | 513 kts | 43° |
| 2026-05-06 17:03 | 41.94708 | 4.94925 | 35963 ft | 514 kts | 43° |
| 2026-05-06 17:03 | 41.99785 | 5.01684 | 35939 ft | 514 kts | 43° |
| 2026-05-06 17:04 | 42.04869 | 5.08455 | 35942 ft | 514 kts | 43° |
| 2026-05-06 17:04 | 42.09120 | 5.14143 | 35976 ft | 515 kts | 43° |
| 2026-05-06 17:05 | 42.14193 | 5.20950 | 35963 ft | 515 kts | 43° |
| 2026-05-06 17:05 | 42.19265 | 5.27761 | 35959 ft | 515 kts | 43° |
| 2026-05-06 17:06 | 42.24341 | 5.34583 | 35929 ft | 515 kts | 43° |
| 2026-05-06 17:06 | 42.29409 | 5.41416 | 35951 ft | 515 kts | 44° |
| 2026-05-06 17:07 | 42.34478 | 5.48270 | 35946 ft | 515 kts | 44° |
| 2026-05-06 17:07 | 42.39543 | 5.55132 | 35946 ft | 515 kts | 44° |
| 2026-05-06 17:08 | 42.44603 | 5.62005 | 35943 ft | 515 kts | 44° |
| 2026-05-06 17:08 | 42.49657 | 5.68890 | 35958 ft | 515 kts | 44° |
| 2026-05-06 17:09 | 42.54733 | 5.75835 | 35934 ft | 515 kts | 44° |
| 2026-05-06 17:09 | 42.59776 | 5.82738 | 35933 ft | 515 kts | 44° |
| 2026-05-06 17:10 | 42.64815 | 5.89648 | 35934 ft | 515 kts | 44° |
| 2026-05-06 17:10 | 42.69854 | 5.96568 | 35934 ft | 515 kts | 44° |
| 2026-05-06 17:11 | 42.74885 | 6.03508 | 35935 ft | 515 kts | 44° |
| 2026-05-06 17:11 | 42.79908 | 6.10462 | 35906 ft | 515 kts | 44° |
| 2026-05-06 17:12 | 42.84935 | 6.17416 | 35918 ft | 515 kts | 42° |
| 2026-05-06 17:12 | 42.90363 | 6.23747 | 35950 ft | 513 kts | 38° |
| 2026-05-06 17:13 | 42.95836 | 6.30004 | 35940 ft | 513 kts | 38° |
| 2026-05-06 17:13 | 43.01298 | 6.36280 | 35935 ft | 513 kts | 38° |
| 2026-05-06 17:14 | 43.06746 | 6.42578 | 35944 ft | 513 kts | 38° |
| 2026-05-06 17:14 | 43.12195 | 6.48874 | 35915 ft | 513 kts | 38° |
| 2026-05-06 17:15 | 43.17641 | 6.55178 | 35889 ft | 513 kts | 38° |
| 2026-05-06 17:15 | 43.22820 | 6.61915 | 35884 ft | 515 kts | 50° |
| 2026-05-06 17:16 | 43.27054 | 6.69837 | 35887 ft | 515 kts | 54° |
| 2026-05-06 17:16 | 43.31260 | 6.77798 | 35874 ft | 515 kts | 54° |
| 2026-05-06 17:17 | 43.35470 | 6.85763 | 35823 ft | 515 kts | 54° |
| 2026-05-06 17:17 | 43.39663 | 6.93755 | 35826 ft | 516 kts | 54° |
| 2026-05-06 17:18 | 43.43878 | 7.01819 | 35864 ft | 516 kts | 54° |
| 2026-05-06 17:18 | 43.48073 | 7.09835 | 35854 ft | 516 kts | 54° |
| 2026-05-06 17:19 | 43.52257 | 7.17860 | 35852 ft | 516 kts | 54° |
| 2026-05-06 17:19 | 43.56438 | 7.25900 | 35850 ft | 516 kts | 54° |
| 2026-05-06 17:20 | 43.60603 | 7.33956 | 35877 ft | 516 kts | 55° |
| 2026-05-06 17:20 | 43.64764 | 7.42014 | 35856 ft | 515 kts | 55° |
| 2026-05-06 17:21 | 43.68897 | 7.50024 | 35850 ft | 515 kts | 55° |
| 2026-05-06 17:21 | 43.73076 | 7.58153 | 35848 ft | 515 kts | 55° |
| 2026-05-06 17:22 | 43.77214 | 7.66236 | 35832 ft | 515 kts | 55° |
| 2026-05-06 17:22 | 43.81472 | 7.74196 | 35842 ft | 514 kts | 48° |
| 2026-05-06 17:23 | 43.86806 | 7.80735 | 35849 ft | 512 kts | 36° |
| 2026-05-06 17:23 | 43.92435 | 7.86772 | 35837 ft | 512 kts | 36° |
| 2026-05-06 17:24 | 43.97814 | 7.93238 | 35859 ft | 512 kts | 43° |
| 2026-05-06 17:24 | 44.03009 | 8.00155 | 35819 ft | 513 kts | 43° |
| 2026-05-06 17:25 | 44.08160 | 8.07001 | 35815 ft | 514 kts | 43° |
| 2026-05-06 17:25 | 44.13326 | 8.13902 | 35852 ft | 515 kts | 43° |
| 2026-05-06 17:26 | 44.18495 | 8.20829 | 35845 ft | 515 kts | 43° |
| 2026-05-06 17:26 | 44.23655 | 8.27750 | 35829 ft | 515 kts | 43° |
| 2026-05-06 17:27 | 44.28818 | 8.34689 | 35807 ft | 515 kts | 43° |
| 2026-05-06 17:27 | 44.33975 | 8.41645 | 35815 ft | 515 kts | 43° |
| 2026-05-06 17:28 | 44.39123 | 8.48613 | 35845 ft | 515 kts | 43° |
| 2026-05-06 17:28 | 44.44267 | 8.55594 | 35869 ft | 515 kts | 43° |
| 2026-05-06 17:29 | 44.49404 | 8.62584 | 35877 ft | 515 kts | 44° |
| 2026-05-06 17:29 | 44.54540 | 8.69581 | 35877 ft | 515 kts | 43° |
| 2026-05-06 17:30 | 44.59676 | 8.76585 | 35842 ft | 515 kts | 44° |
| 2026-05-06 17:30 | 44.64802 | 8.83602 | 35855 ft | 514 kts | 44° |
| 2026-05-06 17:31 | 44.69916 | 8.90638 | 35856 ft | 514 kts | 44° |
| 2026-05-06 17:31 | 44.75022 | 8.97685 | 35842 ft | 514 kts | 44° |
| 2026-05-06 17:32 | 44.80121 | 9.04739 | 35832 ft | 514 kts | 44° |
| 2026-05-06 17:32 | 44.85224 | 9.11802 | 35837 ft | 514 kts | 44° |
| 2026-05-06 17:33 | 44.90321 | 9.18871 | 35793 ft | 514 kts | 44° |
| 2026-05-06 17:33 | 44.95452 | 9.26003 | 35794 ft | 514 kts | 44° |
| 2026-05-06 17:34 | 45.00545 | 9.33102 | 35824 ft | 514 kts | 44° |
| 2026-05-06 17:34 | 45.05631 | 9.40219 | 35810 ft | 515 kts | 44° |
| 2026-05-06 17:35 | 45.10712 | 9.47354 | 35802 ft | 515 kts | 45° |
| 2026-05-06 17:35 | 45.15790 | 9.54505 | 35808 ft | 515 kts | 45° |
| 2026-05-06 17:36 | 45.23400 | 9.65252 | 35845 ft | 515 kts | 45° |
| 2026-05-06 17:36 | 45.27651 | 9.71261 | 35838 ft | 515 kts | 45° |
| 2026-05-06 17:37 | 45.32727 | 9.78462 | 35861 ft | 516 kts | 45° |
| 2026-05-06 17:37 | 45.37798 | 9.85683 | 35832 ft | 516 kts | 45° |
| 2026-05-06 17:38 | 45.42872 | 9.92922 | 35833 ft | 517 kts | 45° |
| 2026-05-06 17:38 | 45.47936 | 10.00183 | 35835 ft | 517 kts | 45° |
| 2026-05-06 17:39 | 45.52939 | 10.07546 | 35855 ft | 517 kts | 47° |
| 2026-05-06 17:39 | 45.57870 | 10.15021 | 35847 ft | 517 kts | 47° |
| 2026-05-06 17:40 | 45.62794 | 10.22521 | 35818 ft | 518 kts | 47° |
| 2026-05-06 17:40 | 45.67742 | 10.30002 | 35837 ft | 517 kts | 46° |
| 2026-05-06 17:41 | 45.72699 | 10.37474 | 35881 ft | 518 kts | 47° |
| 2026-05-06 17:41 | 45.77643 | 10.44967 | 35901 ft | 517 kts | 47° |
| 2026-05-06 17:42 | 45.82568 | 10.52468 | 35895 ft | 517 kts | 47° |
| 2026-05-06 17:42 | 45.87490 | 10.59985 | 35912 ft | 517 kts | 47° |
| 2026-05-06 17:43 | 45.92518 | 10.67364 | 35927 ft | 515 kts | 39° |
| 2026-05-06 17:43 | 45.98472 | 10.72916 | 35928 ft | 510 kts | 25° |
| 2026-05-06 17:44 | 46.04771 | 10.77744 | 35907 ft | 509 kts | 26° |
| 2026-05-06 17:44 | 46.11018 | 10.82560 | 35945 ft | 509 kts | 26° |
| 2026-05-06 17:45 | 46.17253 | 10.87386 | 35959 ft | 508 kts | 26° |
| 2026-05-06 17:45 | 46.23475 | 10.92216 | 35966 ft | 507 kts | 26° |
| 2026-05-06 17:46 | 46.29695 | 10.97038 | 35980 ft | 507 kts | 26° |
| 2026-05-06 17:46 | 46.35911 | 11.01872 | 35976 ft | 507 kts | 26° |
| 2026-05-06 17:47 | 46.42429 | 11.05537 | 35907 ft | 500 kts | 8° |
| 2026-05-06 17:47 | 46.49254 | 11.06492 | 35920 ft | 490 kts | 354° |
| 2026-05-06 17:48 | 46.56069 | 11.06476 | 35904 ft | 490 kts | 354° |
| 2026-05-06 17:48 | 46.62887 | 11.06495 | 35903 ft | 490 kts | 354° |
| 2026-05-06 17:49 | 46.69604 | 11.05581 | 35897 ft | 484 kts | 347° |
| 2026-05-06 17:49 | 46.76279 | 11.04341 | 35895 ft | 483 kts | 347° |
| 2026-05-06 17:50 | 46.82947 | 11.03095 | 35907 ft | 483 kts | 347° |
| 2026-05-06 17:50 | 46.89613 | 11.01829 | 35882 ft | 483 kts | 347° |
| 2026-05-06 17:51 | 46.96334 | 11.01175 | 35856 ft | 490 kts | 360° |
| 2026-05-06 17:51 | 47.03148 | 11.02174 | 35846 ft | 493 kts | 2° |
| 2026-05-06 17:52 | 47.09953 | 11.03218 | 35847 ft | 492 kts | 2° |
| 2026-05-06 17:52 | 47.16759 | 11.04250 | 35833 ft | 492 kts | 2° |
| 2026-05-06 17:53 | 47.23549 | 11.05285 | 35802 ft | 489 kts | 2° |
| 2026-05-06 17:53 | 47.26939 | 11.05807 | 35195 ft | 491 kts | 2° |
| 2026-05-06 17:53 | 47.30353 | 11.06330 | 34324 ft | 496 kts | 1° |
| 2026-05-06 17:54 | 47.33795 | 11.06855 | 33461 ft | 499 kts | 1° |
| 2026-05-06 17:54 | 47.37254 | 11.07382 | 32573 ft | 501 kts | 1° |
| 2026-05-06 17:54 | 47.40724 | 11.07913 | 31645 ft | 504 kts | 1° |
| 2026-05-06 17:54 | 47.44229 | 11.08453 | 30709 ft | 506 kts | 2° |
| 2026-05-06 17:55 | 47.47743 | 11.08997 | 29697 ft | 509 kts | 2° |
| 2026-05-06 17:55 | 47.51323 | 11.09551 | 28599 ft | 511 kts | 2° |
| 2026-05-06 17:55 | 47.54834 | 11.10420 | 27573 ft | 514 kts | 12° |
| 2026-05-06 17:55 | 47.58234 | 11.12087 | 26588 ft | 516 kts | 22° |
| 2026-05-06 17:56 | 47.61399 | 11.14508 | 25938 ft | 508 kts | 30° |
| 2026-05-06 17:56 | 47.64425 | 11.17146 | 25227 ft | 502 kts | 30° |
| 2026-05-06 17:56 | 47.67498 | 11.19493 | 24536 ft | 493 kts | 22° |
| 2026-05-06 17:56 | 47.70639 | 11.21477 | 23714 ft | 489 kts | 22° |
| 2026-05-06 17:57 | 47.73758 | 11.23456 | 22866 ft | 485 kts | 22° |
| 2026-05-06 17:57 | 47.76838 | 11.25413 | 22088 ft | 479 kts | 22° |
| 2026-05-06 17:57 | 47.79882 | 11.27349 | 21369 ft | 473 kts | 22° |
| 2026-05-06 17:57 | 47.82891 | 11.29263 | 20671 ft | 468 kts | 22° |
| 2026-05-06 17:58 | 47.85865 | 11.31157 | 19989 ft | 462 kts | 23° |
| 2026-05-06 17:58 | 47.88811 | 11.33036 | 19312 ft | 458 kts | 23° |
| 2026-05-06 17:58 | 47.91720 | 11.34893 | 18680 ft | 453 kts | 23° |
| 2026-05-06 17:58 | 47.94611 | 11.36736 | 17979 ft | 450 kts | 23° |
| 2026-05-06 17:59 | 47.97469 | 11.38562 | 17317 ft | 444 kts | 23° |
| 2026-05-06 17:59 | 48.00302 | 11.40375 | 16552 ft | 442 kts | 23° |
| 2026-05-06 17:59 | 48.03114 | 11.42176 | 15910 ft | 437 kts | 22° |
| 2026-05-06 17:59 | 48.05897 | 11.43960 | 15219 ft | 434 kts | 22° |
| 2026-05-06 18:00 | 48.08570 | 11.46004 | 14586 ft | 431 kts | 34° |
| 2026-05-06 18:00 | 48.10787 | 11.48945 | 13994 ft | 425 kts | 50° |
| 2026-05-06 18:00 | 48.12390 | 11.52621 | 13336 ft | 420 kts | 64° |
| 2026-05-06 18:00 | 48.13710 | 11.56496 | 12620 ft | 417 kts | 64° |
| 2026-05-06 18:01 | 48.15012 | 11.60371 | 11923 ft | 414 kts | 65° |
| 2026-05-06 18:01 | 48.16296 | 11.64204 | 11286 ft | 409 kts | 65° |
| 2026-05-06 18:01 | 48.17567 | 11.67994 | 10647 ft | 405 kts | 65° |
| 2026-05-06 18:01 | 48.18810 | 11.71694 | 10438 ft | 388 kts | 65° |
| 2026-05-06 18:02 | 48.19983 | 11.75173 | 10224 ft | 361 kts | 65° |
| 2026-05-06 18:02 | 48.21085 | 11.78443 | 9868 ft | 343 kts | 65° |
| 2026-05-06 18:02 | 48.22133 | 11.81565 | 9483 ft | 328 kts | 65° |
| 2026-05-06 18:02 | 48.23136 | 11.84558 | 9093 ft | 315 kts | 65° |
| 2026-05-06 18:03 | 48.24108 | 11.87464 | 8708 ft | 311 kts | 65° |
| 2026-05-06 18:03 | 48.25070 | 11.90355 | 8320 ft | 309 kts | 65° |
| 2026-05-06 18:03 | 48.26021 | 11.93240 | 7936 ft | 307 kts | 66° |
| 2026-05-06 18:03 | 48.26774 | 11.96216 | 7558 ft | 304 kts | 73° |
| 2026-05-06 18:04 | 48.27408 | 11.99235 | 7185 ft | 302 kts | 74° |
| 2026-05-06 18:04 | 48.28019 | 12.02250 | 6804 ft | 301 kts | 74° |
| 2026-05-06 18:04 | 48.28618 | 12.05249 | 6449 ft | 300 kts | 74° |
| 2026-05-06 18:04 | 48.29211 | 12.08240 | 6080 ft | 298 kts | 74° |
| 2026-05-06 18:05 | 48.29799 | 12.11178 | 5968 ft | 289 kts | 74° |
| 2026-05-06 18:05 | 48.30392 | 12.14030 | 5981 ft | 286 kts | 75° |
| 2026-05-06 18:05 | 48.30993 | 12.16865 | 5976 ft | 285 kts | 75° |
| 2026-05-06 18:05 | 48.31684 | 12.19660 | 5960 ft | 287 kts | 62° |
| 2026-05-06 18:06 | 48.32983 | 12.21830 | 5957 ft | 273 kts | 33° |
| 2026-05-06 18:06 | 48.34694 | 12.22796 | 5853 ft | 258 kts | 4° |
| 2026-05-06 18:06 | 48.36438 | 12.22613 | 5591 ft | 248 kts | 338° |
| 2026-05-06 18:06 | 48.37915 | 12.21377 | 5237 ft | 241 kts | 314° |
| 2026-05-06 18:07 | 48.38886 | 12.19397 | 4995 ft | 233 kts | 291° |
| 2026-05-06 18:07 | 48.39249 | 12.17015 | 4981 ft | 232 kts | 268° |
| 2026-05-06 18:07 | 48.39122 | 12.14695 | 4976 ft | 219 kts | 261° |
| 2026-05-06 18:07 | 48.38956 | 12.12465 | 4988 ft | 208 kts | 262° |
| 2026-05-06 18:08 | 48.38801 | 12.10370 | 4987 ft | 197 kts | 262° |
| 2026-05-06 18:08 | 48.38652 | 12.08343 | 4876 ft | 194 kts | 263° |
| 2026-05-06 18:08 | 48.38502 | 12.06319 | 4670 ft | 190 kts | 263° |
| 2026-05-06 18:08 | 48.38359 | 12.04392 | 4436 ft | 180 kts | 263° |
| 2026-05-06 18:09 | 48.38223 | 12.02552 | 4183 ft | 174 kts | 263° |
| 2026-05-06 18:09 | 48.38093 | 12.00799 | 3955 ft | 168 kts | 263° |
| 2026-05-06 18:09 | 48.37963 | 11.99065 | 3736 ft | 162 kts | 264° |
| 2026-05-06 18:09 | 48.37839 | 11.97400 | 3525 ft | 158 kts | 263° |
| 2026-05-06 18:10 | 48.37718 | 11.95787 | 3318 ft | 153 kts | 264° |
| 2026-05-06 18:10 | 48.37601 | 11.94227 | 3117 ft | 146 kts | 263° |
| 2026-05-06 18:10 | 48.37492 | 11.92763 | 2958 ft | 138 kts | 263° |
| 2026-05-06 18:10 | 48.37384 | 11.91330 | 2754 ft | 137 kts | 263° |
| 2026-05-06 18:11 | 48.37313 | 11.90387 | 2627 ft | 136 kts | 262° |
| 2026-05-06 18:11 | 48.37206 | 11.88974 | 2418 ft | 136 kts | 262° |
| 2026-05-06 18:11 | 48.37096 | 11.87525 | 2217 ft | 137 kts | 263° |
| 2026-05-06 18:11 | 48.37003 | 11.86114 | 2046 ft | 134 kts | 263° |
| 2026-05-06 18:12 | 48.36890 | 11.84734 | 1876 ft | 134 kts | 262° |
| 2026-05-06 18:12 | 48.36781 | 11.83323 | 1670 ft | 135 kts | 262° |
| 2026-05-06 18:12 | 48.36674 | 11.81938 | 1502 ft | 133 kts | 263° |
| 2026-05-06 18:12 | 48.36580 | 11.80708 | 1472 ft | 91 kts | 263° |
| 2026-05-06 18:13 | 48.36524 | 11.80020 | 1472 ft | 39 kts | 263° |
| 2026-05-06 18:13 | 48.36481 | 11.79783 | 1484 ft | 19 kts | 246° |
| 2026-05-06 18:13 | 48.36413 | 11.79627 | 1480 ft | 17 kts | 233° |
| 2026-05-06 18:13 | 48.36342 | 11.79483 | 1471 ft | 16 kts | 233° |
| 2026-05-06 18:14 | 48.36279 | 11.79355 | 1478 ft | 16 kts | 232° |
| 2026-05-06 18:14 | 48.36181 | 11.79300 | 1474 ft | 17 kts | 174° |
| 2026-05-06 18:14 | 48.36066 | 11.79320 | 1475 ft | 14 kts | 173° |
| 2026-05-06 18:14 | 48.35992 | 11.79333 | 1482 ft | 6 kts | 173° |
| 2026-05-06 18:15 | 48.35973 | 11.79336 | 1479 ft | 0 kts | 173° |
| 2026-05-06 18:17 | 48.35969 | 11.79337 | 1481 ft | 3 kts | 173° |
| 2026-05-06 18:17 | 48.35916 | 11.79362 | 1476 ft | 12 kts | 150° |
| 2026-05-06 18:18 | 48.35828 | 11.79389 | 1477 ft | 14 kts | 174° |
| 2026-05-06 18:18 | 48.35711 | 11.79408 | 1473 ft | 19 kts | 173° |
| 2026-05-06 18:18 | 48.35572 | 11.79432 | 1482 ft | 21 kts | 173° |
| 2026-05-06 18:18 | 48.35424 | 11.79458 | 1482 ft | 22 kts | 174° |
| 2026-05-06 18:19 | 48.35269 | 11.79484 | 1477 ft | 23 kts | 173° |
| 2026-05-06 18:19 | 48.35145 | 11.79508 | 1485 ft | 15 kts | 173° |
| 2026-05-06 18:19 | 48.35072 | 11.79481 | 1476 ft | 10 kts | 255° |
| 2026-05-06 18:19 | 48.35064 | 11.79381 | 1485 ft | 2 kts | 263° |
| 2026-05-06 18:20 | 48.35064 | 11.79380 | 1485 ft | 0 kts | 263° |